Maersk Nimes — VRFO7 — position and weather

sailwx.info

Track history (hours):
 
Tides and Currents Weather Stations Pressure Air Temp Water Temp Dewpoint Dewpoint Depression Visibility Wind Speed Wind Dir Waves Ship Positions

Maersk Nimes

Last reported at 2018-Feb-18 23:30 UTC. Time now 2018-Feb-18 23:45 UTC.
Position N 53°58' E 008°36'.

Length 210 m; draft 8.9 m.

Type: Cargo ship. MMSI: 477559200.

Date/timePositionNaut miles runAvg speedWind from/ knotsBaromVisibWave heightAir tempDewpointWater temp
2018-Feb-18 23:30N 53°58' E 008°36'510.7
2018-Feb-18 23:00N 53°53' E 008°42'5 9.7
2018-Feb-18 22:31N 53°50' E 008°49'612.2
2018-Feb-18 22:00N 53°51' E 008°59'612.8
2018-Feb-18 21:31N 53°53' E 009°09'713.2
2018-Feb-18 21:00N 53°51' E 009°20'714.6
2018-Feb-18 20:31N 53°44' E 009°26'612.8
2018-Feb-18 20:00N 53°39' E 009°31'713.1
2018-Feb-18 19:30N 53°34' E 009°39'611.8
2018-Feb-18 19:01N 53°33' E 009°49'5 9.4
2018-Feb-18 18:31N 53°33' E 009°57'2 3.3
2018-Feb-18 17:58N 53°32' E 009°60'0 0.0
2018-Feb-18 17:28N 53°32' E 009°60'0 0.0
2018-Feb-18 16:58N 53°32' E 009°60'0 0.0
2018-Feb-18 16:28N 53°32' E 009°60'0 0.0
2018-Feb-18 15:58N 53°32' E 009°60'0 0.0
2018-Feb-18 15:28N 53°32' E 009°60'0 0.0
2018-Feb-18 14:58N 53°32' E 009°60'0 0.0
2018-Feb-18 14:28N 53°32' E 009°60'0 0.0
2018-Feb-18 13:58N 53°32' E 009°60'0 0.0
2018-Feb-18 13:28N 53°32' E 009°60'0 0.0
2018-Feb-18 12:58N 53°32' E 009°60'0 0.0
2018-Feb-18 12:28N 53°32' E 009°60'0 0.0
2018-Feb-18 11:58N 53°32' E 009°60'0 0.0
2018-Feb-18 11:28N 53°32' E 009°60'0 0.0
2018-Feb-18 10:55N 53°32' E 009°60'0 0.0
2018-Feb-18 10:28N 53°32' E 009°60'0 0.0
2018-Feb-18 09:58N 53°32' E 009°60'0 0.0
2018-Feb-18 09:28N 53°32' E 009°60'0 0.0
2018-Feb-18 08:58N 53°32' E 009°60'0 0.0
2018-Feb-18 08:28N 53°32' E 009°60'0 0.0
2018-Feb-18 07:58N 53°32' E 009°60'0 0.0
2018-Feb-18 07:28N 53°32' E 009°60'0 0.0
2018-Feb-18 06:58N 53°32' E 009°60'0 0.0
2018-Feb-18 06:30N 53°32' E 009°60'0 0.0
2018-Feb-18 06:00N 53°32' E 009°60'0 0.0
2018-Feb-18 05:30N 53°32' E 009°60'0 0.0
2018-Feb-18 05:00N 53°32' E 009°60'0 0.3
2018-Feb-18 04:30N 53°32' E 009°60'4 7.8
2018-Feb-18 04:00N 53°32' E 009°53'510.3
2018-Feb-18 03:30N 53°34' E 009°45'612.1
2018-Feb-18 03:01N 53°36' E 009°35'510.3
2018-Feb-18 02:30N 53°40' E 009°30'510.5
2018-Feb-18 02:00N 53°45' E 009°25'510.5
2018-Feb-18 01:30N 53°50' E 009°21'511.1
2018-Feb-18 01:00N 53°53' E 009°14'611.4
2018-Feb-18 00:31N 53°52' E 009°04'612.3
2018-Feb-18 00:01N 53°51' E 008°54'611.5
2018-Feb-17 23:29N 53°52' E 008°44'714.2
2018-Feb-17 23:00N 53°57' E 008°37'917.3
2018-Feb-17 22:29N 53°59' E 008°23'715.3
2018-Feb-17 22:00N 53°59' E 008°10'5 9.6
2018-Feb-17 21:30N 53°59' E 008°02'610.9
2018-Feb-17 20:59N 53°58' E 007°52'9412.9
2018-Feb-17 13:41N 53°33' E 005°18'612.8
2018-Feb-17 13:14N 53°32' E 005°09'512.8
2018-Feb-17 12:49N 53°30' E 005°00'412.5
2018-Feb-17 12:30N 53°28' E 004°55'1911.5
2018-Feb-17 10:50N 53°13' E 004°34'412.6
2018-Feb-17 10:30N 53°10' E 004°31'612.3
2018-Feb-17 10:00N 53°04' E 004°25'612.1
2018-Feb-17 09:30N 52°59' E 004°21'612.2
2018-Feb-17 09:00N 52°53' E 004°17'612.4
2018-Feb-17 08:30N 52°48' E 004°11'612.3
2018-Feb-17 08:00N 52°43' E 004°05'612.6
2018-Feb-17 07:30N 52°38' E 003°60'612.7
2018-Feb-17 07:00N 52°32' E 003°55'612.8
2018-Feb-17 06:30N 52°26' E 003°53'713.1
2018-Feb-17 06:00N 52°20' E 003°51'612.6
2018-Feb-17 05:30N 52°13' E 003°53'612.4
2018-Feb-17 05:00N 52°07' E 003°55'510.2
2018-Feb-17 04:30N 52°02' E 003°55'4 7.3
2018-Feb-17 04:00N 52°01' E 004°00'4 8.3
2018-Feb-17 03:30N 51°58' E 004°05'1 2.1
2018-Feb-17 02:58N 51°58' E 004°03'0 0.0
2018-Feb-17 02:28N 51°58' E 004°03'0 0.0
2018-Feb-17 01:58N 51°58' E 004°03'0 0.0
2018-Feb-17 01:28N 51°58' E 004°03'0 0.0
2018-Feb-17 00:58N 51°58' E 004°03'0 0.0
2018-Feb-17 00:28N 51°58' E 004°03'0 0.0
2018-Feb-16 23:59N 51°58' E 004°03'0 0.0
2018-Feb-16 23:29N 51°58' E 004°03'0 0.0
2018-Feb-16 22:59N 51°58' E 004°03'0 0.0
2018-Feb-16 22:29N 51°58' E 004°03'0 0.0
2018-Feb-16 21:59N 51°58' E 004°03'0 0.0
2018-Feb-16 21:29N 51°58' E 004°03'0 0.0
2018-Feb-16 20:59N 51°58' E 004°03'0 0.0
2018-Feb-16 20:29N 51°58' E 004°03'0 0.0
2018-Feb-16 19:59N 51°58' E 004°03'0 0.0
2018-Feb-16 19:29N 51°58' E 004°03'0 0.0
2018-Feb-16 18:59N 51°58' E 004°03'0 0.0
2018-Feb-16 18:29N 51°58' E 004°03'0 0.0
2018-Feb-16 17:59N 51°58' E 004°03'0 0.8
2018-Feb-16 17:30N 51°58' E 004°04'1 2.6
2018-Feb-16 17:00N 51°59' E 004°04'510.2
2018-Feb-16 16:30N 51°60' E 003°56'5 9.3
2018-Feb-16 16:00N 51°60' E 003°48'3 6.3
2018-Feb-16 15:30N 51°58' E 003°44'1 1.6
2018-Feb-16 14:48N 51°57' E 003°43'0 0.1
2018-Feb-16 14:24N 51°57' E 003°43'0 0.0
2018-Feb-16 13:54N 51°57' E 003°43'0 0.1
2018-Feb-16 13:24N 51°57' E 003°43'0 0.2
2018-Feb-16 13:00N 51°57' E 003°43'0 0.1
2018-Feb-16 12:27N 51°57' E 003°44'0 0.3
2018-Feb-16 12:00N 51°57' E 003°43'0 0.1
2018-Feb-16 11:30N 51°57' E 003°43'0 0.0
2018-Feb-16 11:00N 51°57' E 003°43'0 0.0
2018-Feb-16 10:30N 51°57' E 003°43'0 0.0
2018-Feb-16 10:00N 51°57' E 003°43'0 0.0
2018-Feb-16 09:30N 51°57' E 003°43'0 0.0
2018-Feb-16 08:57N 51°57' E 003°43'0 0.1
2018-Feb-16 08:27N 51°57' E 003°43'0 0.1
2018-Feb-16 07:51N 51°57' E 003°43'0 0.2
2018-Feb-16 07:30N 51°57' E 003°43'0 0.3
2018-Feb-16 06:51N 51°57' E 003°44'0 0.5
2018-Feb-16 06:30N 51°57' E 003°43'3 5.1
2018-Feb-16 06:00N 51°57' E 003°39'611.2
2018-Feb-16 05:29N 51°56' E 003°30'1711.6
2018-Feb-16 04:01N 51°52' E 003°03'010.7
2018-Feb-16 03:59N 51°52' E 003°03'2412.0
2018-Feb-16 01:59N 51°40' E 002°29'612.9
2018-Feb-16 01:30N 51°35' E 002°22'612.8
2018-Feb-16 01:00N 51°31' E 002°15'612.8
2018-Feb-16 00:30N 51°26' E 002°09'611.3
2018-Feb-16 00:00N 51°20' E 002°08'612.2
2018-Feb-15 23:30N 51°14' E 002°05'612.7
2018-Feb-15 23:00N 51°11' E 001°56'612.0
2018-Feb-15 22:30N 51°08' E 001°48'510.9
2018-Feb-15 22:00N 51°04' E 001°41'510.4
2018-Feb-15 21:30N 51°00' E 001°36'5 9.6
2018-Feb-15 21:00N 50°57' E 001°31'4 8.5
2018-Feb-15 20:31N 50°53' E 001°28'4 8.1
2018-Feb-15 20:00N 50°49' E 001°27'4 8.0
2018-Feb-15 19:30N 50°45' E 001°25'4 8.7
2018-Feb-15 19:00N 50°41' E 001°22'5 9.7
2018-Feb-15 18:28N 50°37' E 001°16'7 9.9
2018-Feb-15 17:43N 50°32' E 001°08'9 9.6
2018-Feb-15 16:45N 50°29' E 000°54'510.2
2018-Feb-15 16:19N 50°28' E 000°47'310.2
2018-Feb-15 16:00N 50°27' E 000°43'510.2
2018-Feb-15 15:30N 50°26' E 000°35'510.2
2018-Feb-15 15:00N 50°24' E 000°27'510.1
2018-Feb-15 14:30N 50°23' E 000°20'510.1
2018-Feb-15 14:00N 50°22' E 000°12'510.3
2018-Feb-15 13:30N 50°21' E 000°04'510.6
2018-Feb-15 13:00N 50°19' W 000°04'510.6
2018-Feb-15 12:30N 50°18' W 000°12'510.7
2018-Feb-15 12:00N 50°16' W 000°20'611.0
2018-Feb-15 11:30N 50°15' W 000°28'611.5
2018-Feb-15 11:00N 50°13' W 000°37'612.2
2018-Feb-15 10:30N 50°11' W 000°46'1013.2
2018-Feb-15 09:47N 50°09' W 001°00'413.9
2018-Feb-15 09:31N 50°08' W 001°06'714.3
2018-Feb-15 09:00N 50°06' W 001°17'714.8
2018-Feb-15 08:30N 50°04' W 001°28'815.2
2018-Feb-15 08:01N 50°02' W 001°40'815.3
2018-Feb-15 07:31N 50°01' W 001°51'815.3
2018-Feb-15 07:01N 49°59' W 002°03'714.9
2018-Feb-15 06:30N 49°57' W 002°14'714.0
2018-Feb-15 05:59N 49°55' W 002°25'1013.2
2018-Feb-15 05:14N 49°53' W 002°40'312.8
2018-Feb-15 05:00N 49°52' W 002°44'612.6
2018-Feb-15 04:30N 49°51' W 002°54'612.2
2018-Feb-15 04:00N 49°49' W 003°03'611.9
2018-Feb-15 03:30N 49°47' W 003°12'611.6
2018-Feb-15 03:00N 49°45' W 003°20'611.5
2018-Feb-15 02:29N 49°43' W 003°29'811.4
2018-Feb-15 01:50N 49°42' W 003°40'512.1
2018-Feb-15 01:26N 49°41' W 003°48'811.3
2018-Feb-15 00:42N 49°39' W 003°60'210.6
2018-Feb-15 00:30N 49°38' W 004°03'610.5
2018-Feb-14 23:58N 49°36' W 004°11'1610.2
2018-Feb-14 22:23N 49°32' W 004°35'410.1
2018-Feb-14 22:00N 49°31' W 004°41'1110.2
2018-Feb-14 20:54N 49°27' W 004°57'610.4
2018-Feb-14 20:21N 49°25' W 005°05'  
2018-Feb-12 06:00N 41°18' W 027°42'   280 / 151033.910.8 16.0 8.116.0
2018-Feb-09 23:00N 34°06' W 047°48'26817.9 170 / 131034.110.8 20.014.919.0
2018-Feb-09 08:00N 32°00' W 052°30'   140 / 131029.710.8 20.016.720.0
Track history (hours):
 
Tides and Currents Weather Stations Pressure Air Temp Water Temp Dewpoint Dewpoint Depression Visibility Wind Speed Wind Dir Waves Ship Positions

Maersk Nimes

Last reported at 2018-Feb-18 23:30 UTC. Time now 2018-Feb-18 23:45 UTC.
Position N 53°58' E 008°36'.

Length 210 m; draft 8.9 m.

Type: Cargo ship. MMSI: 477559200.

Date/timePositionNaut miles runAvg speedWind from/ knotsBaromVisibWave heightAir tempDewpointWater temp
2018-Feb-18 23:30N 53°58' E 008°36'510.7
2018-Feb-18 23:00N 53°53' E 008°42'5 9.7
2018-Feb-18 22:31N 53°50' E 008°49'612.2
2018-Feb-18 22:00N 53°51' E 008°59'612.8
2018-Feb-18 21:31N 53°53' E 009°09'713.2
2018-Feb-18 21:00N 53°51' E 009°20'714.6
2018-Feb-18 20:31N 53°44' E 009°26'612.8
2018-Feb-18 20:00N 53°39' E 009°31'713.1
2018-Feb-18 19:30N 53°34' E 009°39'611.8
2018-Feb-18 19:01N 53°33' E 009°49'5 9.4
2018-Feb-18 18:31N 53°33' E 009°57'2 3.3
2018-Feb-18 17:58N 53°32' E 009°60'0 0.0
2018-Feb-18 17:28N 53°32' E 009°60'0 0.0
2018-Feb-18 16:58N 53°32' E 009°60'0 0.0
2018-Feb-18 16:28N 53°32' E 009°60'0 0.0
2018-Feb-18 15:58N 53°32' E 009°60'0 0.0
2018-Feb-18 15:28N 53°32' E 009°60'0 0.0
2018-Feb-18 14:58N 53°32' E 009°60'0 0.0
2018-Feb-18 14:28N 53°32' E 009°60'0 0.0
2018-Feb-18 13:58N 53°32' E 009°60'0 0.0
2018-Feb-18 13:28N 53°32' E 009°60'0 0.0
2018-Feb-18 12:58N 53°32' E 009°60'0 0.0
2018-Feb-18 12:28N 53°32' E 009°60'0 0.0
2018-Feb-18 11:58N 53°32' E 009°60'0 0.0
2018-Feb-18 11:28N 53°32' E 009°60'0 0.0
2018-Feb-18 10:55N 53°32' E 009°60'0 0.0
2018-Feb-18 10:28N 53°32' E 009°60'0 0.0
2018-Feb-18 09:58N 53°32' E 009°60'0 0.0
2018-Feb-18 09:28N 53°32' E 009°60'0 0.0
2018-Feb-18 08:58N 53°32' E 009°60'0 0.0
2018-Feb-18 08:28N 53°32' E 009°60'0 0.0
2018-Feb-18 07:58N 53°32' E 009°60'0 0.0
2018-Feb-18 07:28N 53°32' E 009°60'0 0.0
2018-Feb-18 06:58N 53°32' E 009°60'0 0.0
2018-Feb-18 06:30N 53°32' E 009°60'0 0.0
2018-Feb-18 06:00N 53°32' E 009°60'0 0.0
2018-Feb-18 05:30N 53°32' E 009°60'0 0.0
2018-Feb-18 05:00N 53°32' E 009°60'0 0.3
2018-Feb-18 04:30N 53°32' E 009°60'4 7.8
2018-Feb-18 04:00N 53°32' E 009°53'510.3
2018-Feb-18 03:30N 53°34' E 009°45'612.1
2018-Feb-18 03:01N 53°36' E 009°35'510.3
2018-Feb-18 02:30N 53°40' E 009°30'510.5
2018-Feb-18 02:00N 53°45' E 009°25'510.5
2018-Feb-18 01:30N 53°50' E 009°21'511.1
2018-Feb-18 01:00N 53°53' E 009°14'611.4
2018-Feb-18 00:31N 53°52' E 009°04'612.3
2018-Feb-18 00:01N 53°51' E 008°54'611.5
2018-Feb-17 23:29N 53°52' E 008°44'714.2
2018-Feb-17 23:00N 53°57' E 008°37'917.3
2018-Feb-17 22:29N 53°59' E 008°23'715.3
2018-Feb-17 22:00N 53°59' E 008°10'5 9.6
2018-Feb-17 21:30N 53°59' E 008°02'610.9
2018-Feb-17 20:59N 53°58' E 007°52'9412.9
2018-Feb-17 13:41N 53°33' E 005°18'612.8
2018-Feb-17 13:14N 53°32' E 005°09'512.8
2018-Feb-17 12:49N 53°30' E 005°00'412.5
2018-Feb-17 12:30N 53°28' E 004°55'1911.5
2018-Feb-17 10:50N 53°13' E 004°34'412.6
2018-Feb-17 10:30N 53°10' E 004°31'612.3
2018-Feb-17 10:00N 53°04' E 004°25'612.1
2018-Feb-17 09:30N 52°59' E 004°21'612.2
2018-Feb-17 09:00N 52°53' E 004°17'612.4
2018-Feb-17 08:30N 52°48' E 004°11'612.3
2018-Feb-17 08:00N 52°43' E 004°05'612.6
2018-Feb-17 07:30N 52°38' E 003°60'612.7
2018-Feb-17 07:00N 52°32' E 003°55'612.8
2018-Feb-17 06:30N 52°26' E 003°53'713.1
2018-Feb-17 06:00N 52°20' E 003°51'612.6
2018-Feb-17 05:30N 52°13' E 003°53'612.4
2018-Feb-17 05:00N 52°07' E 003°55'510.2
2018-Feb-17 04:30N 52°02' E 003°55'4 7.3
2018-Feb-17 04:00N 52°01' E 004°00'4 8.3
2018-Feb-17 03:30N 51°58' E 004°05'1 2.1
2018-Feb-17 02:58N 51°58' E 004°03'0 0.0
2018-Feb-17 02:28N 51°58' E 004°03'0 0.0
2018-Feb-17 01:58N 51°58' E 004°03'0 0.0
2018-Feb-17 01:28N 51°58' E 004°03'0 0.0
2018-Feb-17 00:58N 51°58' E 004°03'0 0.0
2018-Feb-17 00:28N 51°58' E 004°03'0 0.0
2018-Feb-16 23:59N 51°58' E 004°03'0 0.0
2018-Feb-16 23:29N 51°58' E 004°03'0 0.0
2018-Feb-16 22:59N 51°58' E 004°03'0 0.0
2018-Feb-16 22:29N 51°58' E 004°03'0 0.0
2018-Feb-16 21:59N 51°58' E 004°03'0 0.0
2018-Feb-16 21:29N 51°58' E 004°03'0 0.0
2018-Feb-16 20:59N 51°58' E 004°03'0 0.0
2018-Feb-16 20:29N 51°58' E 004°03'0 0.0
2018-Feb-16 19:59N 51°58' E 004°03'0 0.0
2018-Feb-16 19:29N 51°58' E 004°03'0 0.0
2018-Feb-16 18:59N 51°58' E 004°03'0 0.0
2018-Feb-16 18:29N 51°58' E 004°03'0 0.0
2018-Feb-16 17:59N 51°58' E 004°03'0 0.8
2018-Feb-16 17:30N 51°58' E 004°04'1 2.6
2018-Feb-16 17:00N 51°59' E 004°04'510.2
2018-Feb-16 16:30N 51°60' E 003°56'5 9.3
2018-Feb-16 16:00N 51°60' E 003°48'3 6.3
2018-Feb-16 15:30N 51°58' E 003°44'1 1.6
2018-Feb-16 14:48N 51°57' E 003°43'0 0.1
2018-Feb-16 14:24N 51°57' E 003°43'0 0.0
2018-Feb-16 13:54N 51°57' E 003°43'0 0.1
2018-Feb-16 13:24N 51°57' E 003°43'0 0.2
2018-Feb-16 13:00N 51°57' E 003°43'0 0.1
2018-Feb-16 12:27N 51°57' E 003°44'0 0.3
2018-Feb-16 12:00N 51°57' E 003°43'0 0.1
2018-Feb-16 11:30N 51°57' E 003°43'0 0.0
2018-Feb-16 11:00N 51°57' E 003°43'0 0.0
2018-Feb-16 10:30N 51°57' E 003°43'0 0.0
2018-Feb-16 10:00N 51°57' E 003°43'0 0.0
2018-Feb-16 09:30N 51°57' E 003°43'0 0.0
2018-Feb-16 08:57N 51°57' E 003°43'0 0.1
2018-Feb-16 08:27N 51°57' E 003°43'0 0.1
2018-Feb-16 07:51N 51°57' E 003°43'0 0.2
2018-Feb-16 07:30N 51°57' E 003°43'0 0.3
2018-Feb-16 06:51N 51°57' E 003°44'0 0.5
2018-Feb-16 06:30N 51°57' E 003°43'3 5.1
2018-Feb-16 06:00N 51°57' E 003°39'611.2
2018-Feb-16 05:29N 51°56' E 003°30'1711.6
2018-Feb-16 04:01N 51°52' E 003°03'010.7
2018-Feb-16 03:59N 51°52' E 003°03'2412.0
2018-Feb-16 01:59N 51°40' E 002°29'612.9
2018-Feb-16 01:30N 51°35' E 002°22'612.8
2018-Feb-16 01:00N 51°31' E 002°15'612.8
2018-Feb-16 00:30N 51°26' E 002°09'611.3
2018-Feb-16 00:00N 51°20' E 002°08'612.2
2018-Feb-15 23:30N 51°14' E 002°05'612.7
2018-Feb-15 23:00N 51°11' E 001°56'612.0
2018-Feb-15 22:30N 51°08' E 001°48'510.9
2018-Feb-15 22:00N 51°04' E 001°41'510.4
2018-Feb-15 21:30N 51°00' E 001°36'5 9.6
2018-Feb-15 21:00N 50°57' E 001°31'4 8.5
2018-Feb-15 20:31N 50°53' E 001°28'4 8.1
2018-Feb-15 20:00N 50°49' E 001°27'4 8.0
2018-Feb-15 19:30N 50°45' E 001°25'4 8.7
2018-Feb-15 19:00N 50°41' E 001°22'5 9.7
2018-Feb-15 18:28N 50°37' E 001°16'7 9.9
2018-Feb-15 17:43N 50°32' E 001°08'9 9.6
2018-Feb-15 16:45N 50°29' E 000°54'510.2
2018-Feb-15 16:19N 50°28' E 000°47'310.2
2018-Feb-15 16:00N 50°27' E 000°43'510.2
2018-Feb-15 15:30N 50°26' E 000°35'510.2
2018-Feb-15 15:00N 50°24' E 000°27'510.1
2018-Feb-15 14:30N 50°23' E 000°20'510.1
2018-Feb-15 14:00N 50°22' E 000°12'510.3
2018-Feb-15 13:30N 50°21' E 000°04'510.6
2018-Feb-15 13:00N 50°19' W 000°04'510.6
2018-Feb-15 12:30N 50°18' W 000°12'510.7
2018-Feb-15 12:00N 50°16' W 000°20'611.0
2018-Feb-15 11:30N 50°15' W 000°28'611.5
2018-Feb-15 11:00N 50°13' W 000°37'612.2
2018-Feb-15 10:30N 50°11' W 000°46'1013.2
2018-Feb-15 09:47N 50°09' W 001°00'413.9
2018-Feb-15 09:31N 50°08' W 001°06'714.3
2018-Feb-15 09:00N 50°06' W 001°17'714.8
2018-Feb-15 08:30N 50°04' W 001°28'815.2
2018-Feb-15 08:01N 50°02' W 001°40'815.3
2018-Feb-15 07:31N 50°01' W 001°51'815.3
2018-Feb-15 07:01N 49°59' W 002°03'714.9
2018-Feb-15 06:30N 49°57' W 002°14'714.0
2018-Feb-15 05:59N 49°55' W 002°25'1013.2
2018-Feb-15 05:14N 49°53' W 002°40'312.8
2018-Feb-15 05:00N 49°52' W 002°44'612.6
2018-Feb-15 04:30N 49°51' W 002°54'612.2
2018-Feb-15 04:00N 49°49' W 003°03'611.9
2018-Feb-15 03:30N 49°47' W 003°12'611.6
2018-Feb-15 03:00N 49°45' W 003°20'611.5
2018-Feb-15 02:29N 49°43' W 003°29'811.4
2018-Feb-15 01:50N 49°42' W 003°40'512.1
2018-Feb-15 01:26N 49°41' W 003°48'811.3
2018-Feb-15 00:42N 49°39' W 003°60'210.6
2018-Feb-15 00:30N 49°38' W 004°03'610.5
2018-Feb-14 23:58N 49°36' W 004°11'1610.2
2018-Feb-14 22:23N 49°32' W 004°35'410.1
2018-Feb-14 22:00N 49°31' W 004°41'1110.2
2018-Feb-14 20:54N 49°27' W 004°57'610.4
2018-Feb-14 20:21N 49°25' W 005°05'  
2018-Feb-12 06:00N 41°18' W 027°42'   280 / 151033.910.8 16.0 8.116.0
2018-Feb-09 23:00N 34°06' W 047°48'26817.9 170 / 131034.110.8 20.014.919.0
2018-Feb-09 08:00N 32°00' W 052°30'   140 / 131029.710.8 20.016.720.0

Dump ship's entire track history